Time;durP1;ratioP1;P1;durP2;ratioP2;P2;SDS_P1;SDS_P2;PMS_P1;PMS_P2;Temp;Humidity;BMP_temperature;BMP_pressure;BME280_temperature;BME280_humidity;BME280_pressure;Samples;Min_cycle;Max_cycle;Signal;HPM_P1;HPM_P2
2023/10/12 00:00:47;;;;;;;;;;;21.50;73.60;;;;;;4946158;28;95146;-39
2023/10/12 00:03:13;;;;;;;;;;;21.50;73.70;;;;;;4948768;28;94683;-38
2023/10/12 00:05:45;;;;;;;;;;;21.50;73.70;;;;;;4950901;28;94436;-38
2023/10/12 00:08:22;;;;;;;;;;;21.60;73.70;;;;;;4953515;28;95151;-39
2023/10/12 00:10:53;;;;;;;;;;;21.50;73.70;;;;;;4942791;28;95165;-39
2023/10/12 00:13:20;;;;;;;;;;;21.50;73.60;;;;;;4946250;28;96298;-39
2023/10/12 00:15:46;;;;;;;;;;;21.50;73.70;;;;;;4946180;28;96162;-39
2023/10/12 00:18:14;;;;;;;;;;;21.50;73.70;;;;;;4953357;28;94738;-40
2023/10/12 00:20:41;;;;;;;;;;;21.50;73.60;;;;;;4944316;28;94730;-39
2023/10/12 00:23:10;;;;;;;;;;;21.50;73.60;;;;;;4958586;28;94810;-38
2023/10/12 00:25:46;;;;;;;;;;;21.50;73.70;;;;;;4946830;28;96103;-38
2023/10/12 00:28:17;;;;;;;;;;;21.50;73.70;;;;;;4949316;28;94676;-39
2023/10/12 00:30:55;;;;;;;;;;;21.50;73.70;;;;;;4950875;28;94557;-39
2023/10/12 00:33:21;;;;;;;;;;;21.50;73.70;;;;;;4957675;28;94742;-40
2023/10/12 00:36:04;;;;;;;;;;;21.50;73.80;;;;;;4951261;28;94797;-39
2023/10/12 00:38:30;;;;;;;;;;;21.50;73.80;;;;;;4949548;28;97725;-39
2023/10/12 00:40:57;;;;;;;;;;;21.50;73.70;;;;;;4950146;28;96298;-40
2023/10/12 00:43:31;;;;;;;;;;;21.50;73.80;;;;;;4951469;28;95156;-39
2023/10/12 00:45:57;;;;;;;;;;;21.50;73.80;;;;;;4954872;28;98841;-41
2023/10/12 00:48:29;;;;;;;;;;;21.50;73.80;;;;;;4958857;28;94643;-39
2023/10/12 00:50:56;;;;;;;;;;;21.50;73.70;;;;;;4954308;28;96704;-39
2023/10/12 00:53:22;;;;;;;;;;;21.50;73.70;;;;;;4953532;28;94916;-39
2023/10/12 00:55:48;;;;;;;;;;;21.50;73.80;;;;;;4947493;28;93938;-41
2023/10/12 00:58:15;;;;;;;;;;;21.50;73.80;;;;;;4952637;28;94671;-39
2023/10/12 01:00:51;;;;;;;;;;;21.50;73.90;;;;;;4950273;28;96602;-39
2023/10/12 01:03:36;;;;;;;;;;;21.50;73.80;;;;;;4941832;28;95628;-38
2023/10/12 01:08:34;;;;;;;;;;;21.40;73.90;;;;;;4952607;28;95089;-39
2023/10/12 01:11:04;;;;;;;;;;;21.40;74.00;;;;;;4949171;28;94745;-39
2023/10/12 01:13:33;;;;;;;;;;;21.40;74.10;;;;;;4955252;28;94708;-39
2023/10/12 01:16:15;;;;;;;;;;;21.40;74.10;;;;;;4955655;28;95731;-38
2023/10/12 01:18:44;;;;;;;;;;;21.40;73.90;;;;;;4947657;28;95314;-39
2023/10/12 01:21:11;;;;;;;;;;;21.50;73.90;;;;;;4954905;28;94579;-38
2023/10/12 01:23:40;;;;;;;;;;;21.40;73.90;;;;;;4957904;28;95765;-38
2023/10/12 01:26:09;;;;;;;;;;;21.40;73.90;;;;;;4953101;28;97081;-38
2023/10/12 01:28:35;;;;;;;;;;;21.40;73.90;;;;;;4955603;28;95969;-38
2023/10/12 01:31:03;;;;;;;;;;;21.40;73.90;;;;;;4954438;28;94963;-39
2023/10/12 01:33:28;;;;;;;;;;;21.40;74.10;;;;;;4958821;28;95088;-39
2023/10/12 01:35:56;;;;;;;;;;;21.40;74.10;;;;;;4950883;28;96356;-39
2023/10/12 01:38:22;;;;;;;;;;;21.40;74.00;;;;;;4961089;28;95084;-39
2023/10/12 01:43:17;;;;;;;;;;;21.40;74.70;;;;;;4954681;28;95192;-39
2023/10/12 01:45:43;;;;;;;;;;;21.40;74.00;;;;;;4955823;28;94384;-39
2023/10/12 01:48:22;;;;;;;;;;;21.40;74.10;;;;;;4945530;28;95348;-39
2023/10/12 01:50:49;;;;;;;;;;;21.40;74.00;;;;;;4956316;28;95204;-39
2023/10/12 01:53:25;;;;;;;;;;;21.40;74.10;;;;;;4954070;28;95755;-39
2023/10/12 01:55:51;;;;;;;;;;;21.40;74.20;;;;;;4949678;28;95916;-40
2023/10/12 01:58:18;;;;;;;;;;;21.30;74.30;;;;;;4958829;28;95652;-38
2023/10/12 02:00:53;;;;;;;;;;;21.40;74.20;;;;;;4949572;28;95117;-39
2023/10/12 02:04:05;;;;;;;;;;;21.40;74.20;;;;;;4953537;28;97995;-39
2023/10/12 02:06:13;;;;;;;;;;;21.40;74.20;;;;;;4939482;28;95511;-38
2023/10/12 02:08:40;;;;;;;;;;;21.40;74.20;;;;;;4950943;28;96278;-39
2023/10/12 02:11:07;;;;;;;;;;;21.30;74.30;;;;;;4954046;28;95117;-39
2023/10/12 02:13:36;;;;;;;;;;;21.30;74.50;;;;;;4952388;28;95544;-39
2023/10/12 02:16:06;;;;;;;;;;;21.30;74.40;;;;;;4952322;28;95903;-38
2023/10/12 02:18:33;;;;;;;;;;;21.30;74.40;;;;;;4949188;28;96202;-39
2023/10/12 02:21:06;;;;;;;;;;;21.30;74.40;;;;;;4949196;28;95283;-39
2023/10/12 02:23:53;;;;;;;;;;;21.30;74.50;;;;;;4963507;28;96759;-40
2023/10/12 02:26:38;;;;;;;;;;;21.30;74.60;;;;;;4954562;28;96709;-39
2023/10/12 02:32:15;;;;;;;;;;;21.30;74.40;;;;;;4952665;28;95530;-39
2023/10/12 02:34:42;;;;;;;;;;;21.30;74.30;;;;;;4944897;28;95158;-39
2023/10/12 02:39:40;;;;;;;;;;;21.30;74.40;;;;;;4951310;28;95914;-40
2023/10/12 02:44:57;;;;;;;;;;;21.30;74.40;;;;;;4951737;28;96076;-39
2023/10/12 02:47:33;;;;;;;;;;;21.30;74.40;;;;;;4958164;28;95179;-40
2023/10/12 02:52:35;;;;;;;;;;;21.30;74.50;;;;;;4953956;28;94999;-38
2023/10/12 02:55:08;;;;;;;;;;;21.30;74.50;;;;;;4954007;28;95819;-40
2023/10/12 02:57:34;;;;;;;;;;;21.30;74.50;;;;;;4946834;28;96051;-39
2023/10/12 03:00:08;;;;;;;;;;;21.30;74.50;;;;;;4956399;28;94785;-38
2023/10/12 03:02:34;;;;;;;;;;;21.30;74.60;;;;;;4950151;28;94505;-38
2023/10/12 03:05:17;;;;;;;;;;;21.20;74.60;;;;;;4955239;28;96658;-39
2023/10/12 03:07:44;;;;;;;;;;;21.30;74.70;;;;;;4954563;28;95063;-38
2023/10/12 03:10:24;;;;;;;;;;;21.30;74.70;;;;;;4954142;28;97086;-40
2023/10/12 03:12:54;;;;;;;;;;;21.30;74.70;;;;;;4953835;28;95505;-39
2023/10/12 03:15:21;;;;;;;;;;;21.20;74.80;;;;;;4957189;28;95332;-38
2023/10/12 03:17:54;;;;;;;;;;;21.20;74.90;;;;;;4950187;28;96837;-38
2023/10/12 03:20:22;;;;;;;;;;;21.20;74.80;;;;;;4951263;28;94952;-38
2023/10/12 03:22:59;;;;;;;;;;;21.20;74.90;;;;;;4951825;28;94681;-39
2023/10/12 03:25:45;;;;;;;;;;;21.20;74.90;;;;;;4954160;28;94735;-39
2023/10/12 03:28:43;;;;;;;;;;;21.20;74.90;;;;;;4951581;28;94648;-39
2023/10/12 03:31:15;;;;;;;;;;;21.20;75.60;;;;;;4955446;28;95172;-41
2023/10/12 03:33:46;;;;;;;;;;;21.20;74.90;;;;;;4951093;28;97375;-39
2023/10/12 03:36:17;;;;;;;;;;;21.20;74.90;;;;;;4960421;28;98019;-40
2023/10/12 03:38:43;;;;;;;;;;;21.20;74.90;;;;;;4948710;28;98165;-39
2023/10/12 03:43:54;;;;;;;;;;;21.20;75.00;;;;;;4952217;28;95629;-38
2023/10/12 03:46:28;;;;;;;;;;;21.20;75.00;;;;;;4953730;28;99199;-39
2023/10/12 03:51:40;;;;;;;;;;;21.20;75.10;;;;;;4942885;28;98724;-39
2023/10/12 03:54:29;;;;;;;;;;;21.20;75.00;;;;;;4950631;28;94601;-39
2023/10/12 03:56:53;;;;;;;;;;;21.20;74.90;;;;;;4940701;28;95260;-38
2023/10/12 03:59:26;;;;;;;;;;;21.20;75.20;;;;;;4951658;28;96749;-39
2023/10/12 04:01:54;;;;;;;;;;;21.20;74.80;;;;;;4943198;28;100505;-39
2023/10/12 04:04:27;;;;;;;;;;;21.20;75.00;;;;;;4946758;28;94715;-39
2023/10/12 04:09:43;;;;;;;;;;;21.20;75.10;;;;;;4950188;28;95380;-39
2023/10/12 04:14:51;;;;;;;;;;;21.20;74.80;;;;;;4951719;28;94729;-38
2023/10/12 04:17:39;;;;;;;;;;;21.20;74.90;;;;;;4952890;28;94821;-39
2023/10/12 04:25:32;;;;;;;;;;;21.20;74.90;;;;;;4953593;28;94522;-39
2023/10/12 04:28:10;;;;;;;;;;;21.10;75.00;;;;;;4956281;28;96095;-37
2023/10/12 04:33:24;;;;;;;;;;;21.10;75.10;;;;;;4952036;28;94878;-38
2023/10/12 04:41:25;;;;;;;;;;;21.10;75.10;;;;;;4943455;28;95347;-39
2023/10/12 04:43:52;;;;;;;;;;;21.10;75.00;;;;;;4938055;28;95071;-38
2023/10/12 04:48:49;;;;;;;;;;;21.10;75.10;;;;;;4931361;28;94594;-39
2023/10/12 04:51:21;;;;;;;;;;;21.10;75.10;;;;;;4955504;28;95190;-38
2023/10/12 04:53:57;;;;;;;;;;;21.10;75.00;;;;;;4954720;28;96671;-38
2023/10/12 04:56:26;;;;;;;;;;;21.20;75.00;;;;;;4958155;28;95667;-38
2023/10/12 04:58:59;;;;;;;;;;;21.20;75.00;;;;;;4949449;28;96371;-37
2023/10/12 05:01:51;;;;;;;;;;;21.10;74.90;;;;;;4947115;28;94341;-38
2023/10/12 05:04:35;;;;;;;;;;;21.10;74.90;;;;;;4929141;28;95322;-38
2023/10/12 05:09:38;;;;;;;;;;;21.10;75.10;;;;;;4947616;28;94679;-38
2023/10/12 05:12:04;;;;;;;;;;;21.10;75.10;;;;;;4948409;28;93997;-38
2023/10/12 05:14:30;;;;;;;;;;;21.10;75.40;;;;;;4953178;28;95463;-38
2023/10/12 05:16:56;;;;;;;;;;;21.10;75.40;;;;;;4948655;28;102808;-38
2023/10/12 05:19:22;;;;;;;;;;;21.10;75.30;;;;;;4955860;28;97322;-38
2023/10/12 05:21:47;;;;;;;;;;;21.00;75.40;;;;;;4946340;28;95740;-38
2023/10/12 05:24:13;;;;;;;;;;;21.10;75.70;;;;;;4949721;28;94433;-39
2023/10/12 05:26:38;;;;;;;;;;;21.10;75.60;;;;;;4949735;28;94860;-38
2023/10/12 05:31:58;;;;;;;;;;;21.10;75.70;;;;;;4942877;28;96289;-38
2023/10/12 05:34:32;;;;;;;;;;;21.10;75.70;;;;;;4947841;28;95539;-38
2023/10/12 05:37:00;;;;;;;;;;;21.10;76.30;;;;;;4949212;28;93975;-38
2023/10/12 05:39:27;;;;;;;;;;;21.10;76.20;;;;;;4941052;28;94686;-39
2023/10/12 05:41:59;;;;;;;;;;;21.10;76.50;;;;;;4939295;28;95248;-38
2023/10/12 05:44:26;;;;;;;;;;;21.10;76.30;;;;;;4949925;28;99351;-38
2023/10/12 05:46:52;;;;;;;;;;;21.10;76.30;;;;;;4950408;28;95547;-39
2023/10/12 05:49:22;;;;;;;;;;;21.10;76.30;;;;;;4952867;28;94825;-39
2023/10/12 05:51:48;;;;;;;;;;;21.10;76.20;;;;;;4947650;28;95857;-39
2023/10/12 05:54:20;;;;;;;;;;;21.10;76.40;;;;;;4956420;28;95692;-38
2023/10/12 05:56:47;;;;;;;;;;;21.10;76.50;;;;;;4943244;28;95020;-38
2023/10/12 05:59:13;;;;;;;;;;;21.10;76.60;;;;;;4935343;28;97452;-38
2023/10/12 06:01:40;;;;;;;;;;;21.10;76.80;;;;;;4947415;28;94054;-40
2023/10/12 06:04:06;;;;;;;;;;;21.00;76.70;;;;;;4952541;28;95393;-39
2023/10/12 06:06:43;;;;;;;;;;;21.10;76.90;;;;;;4958242;28;95393;-40
2023/10/12 06:09:12;;;;;;;;;;;21.10;76.80;;;;;;4946948;28;96174;-39
2023/10/12 06:11:41;;;;;;;;;;;21.10;76.60;;;;;;4946867;28;97317;-40
2023/10/12 06:14:07;;;;;;;;;;;21.20;76.50;;;;;;4949592;28;96837;-40
2023/10/12 06:16:39;;;;;;;;;;;21.20;76.40;;;;;;4947073;28;95379;-40
2023/10/12 06:19:05;;;;;;;;;;;21.20;76.40;;;;;;4951989;28;95465;-40
2023/10/12 06:21:42;;;;;;;;;;;21.20;76.50;;;;;;4937591;28;97103;-37
2023/10/12 06:24:11;;;;;;;;;;;21.20;76.90;;;;;;4950956;28;94927;-39
2023/10/12 06:26:37;;;;;;;;;;;21.20;77.00;;;;;;4942769;28;94439;-40
2023/10/12 06:29:03;;;;;;;;;;;21.30;77.40;;;;;;4953897;28;98470;-40
2023/10/12 06:31:31;;;;;;;;;;;21.30;77.70;;;;;;4949297;28;98680;-40
2023/10/12 06:34:04;;;;;;;;;;;21.30;77.50;;;;;;4942554;28;97082;-40
2023/10/12 06:36:39;;;;;;;;;;;21.40;77.40;;;;;;4945724;28;96999;-38
2023/10/12 06:46:46;;;;;;;;;;;21.40;77.00;;;;;;4947862;28;95400;-42
2023/10/12 06:49:45;;;;;;;;;;;21.40;76.80;;;;;;4942812;28;95585;-38
2023/10/12 06:52:04;;;;;;;;;;;21.40;76.50;;;;;;4941409;28;94045;-38
2023/10/12 06:59:52;;;;;;;;;;;21.40;76.20;;;;;;4951251;28;96889;-38
2023/10/12 07:02:22;;;;;;;;;;;21.40;76.50;;;;;;4952873;28;95007;-39
2023/10/12 07:04:53;;;;;;;;;;;21.40;76.50;;;;;;4943923;28;98343;-39
2023/10/12 07:07:29;;;;;;;;;;;21.40;76.40;;;;;;4938571;28;96915;-42
2023/10/12 07:10:13;;;;;;;;;;;21.40;76.40;;;;;;4944730;28;94696;-39
2023/10/12 07:12:45;;;;;;;;;;;21.40;76.60;;;;;;4944749;28;94472;-40
2023/10/12 07:15:11;;;;;;;;;;;21.40;76.40;;;;;;4947569;28;96768;-40
2023/10/12 07:17:37;;;;;;;;;;;21.40;76.50;;;;;;4952805;28;93984;-40
2023/10/12 07:20:05;;;;;;;;;;;21.40;76.50;;;;;;4951758;28;96472;-39
2023/10/12 07:22:36;;;;;;;;;;;21.50;76.40;;;;;;4952064;28;94509;-37
2023/10/12 07:25:02;;;;;;;;;;;21.50;76.10;;;;;;4949943;28;96316;-37
2023/10/12 07:27:41;;;;;;;;;;;21.50;76.40;;;;;;4939857;28;94911;-37
2023/10/12 07:30:15;;;;;;;;;;;21.50;76.40;;;;;;4957186;28;95337;-38
2023/10/12 07:32:44;;;;;;;;;;;21.50;76.30;;;;;;4941916;28;96458;-38
2023/10/12 07:35:31;;;;;;;;;;;21.50;76.20;;;;;;4945329;28;97965;-39
2023/10/12 07:37:57;;;;;;;;;;;21.60;76.30;;;;;;4951672;28;95724;-41
2023/10/12 07:40:23;;;;;;;;;;;21.50;76.80;;;;;;4940733;28;95292;-40
2023/10/12 07:42:48;;;;;;;;;;;21.50;76.00;;;;;;4950109;28;94391;-40
2023/10/12 07:45:17;;;;;;;;;;;21.60;76.00;;;;;;4943751;28;95100;-40
2023/10/12 07:47:45;;;;;;;;;;;21.60;76.00;;;;;;4949903;28;97625;-41
2023/10/12 07:50:16;;;;;;;;;;;21.60;75.90;;;;;;4944033;28;95864;-43
2023/10/12 07:55:12;;;;;;;;;;;21.60;76.10;;;;;;4945789;28;97025;-41
2023/10/12 07:57:38;;;;;;;;;;;21.70;76.20;;;;;;4947831;28;95249;-39
2023/10/12 08:06:07;;;;;;;;;;;21.60;76.20;;;;;;4953114;28;94830;-38
2023/10/12 08:13:14;;;;;;;;;;;21.70;76.20;;;;;;4946842;28;98170;-41
2023/10/12 08:21:25;;;;;;;;;;;21.70;76.00;;;;;;4951161;28;95751;-40
2023/10/12 08:24:10;;;;;;;;;;;21.80;76.20;;;;;;4955315;28;94671;-40
2023/10/12 08:32:04;;;;;;;;;;;21.80;76.00;;;;;;4956582;28;95089;-39
2023/10/12 08:39:37;;;;;;;;;;;21.80;76.40;;;;;;4954840;28;95191;-39
2023/10/12 08:44:51;;;;;;;;;;;21.80;76.30;;;;;;4951415;28;96534;-39
2023/10/12 08:52:43;;;;;;;;;;;21.90;75.90;;;;;;4915431;28;94803;-38
2023/10/12 08:55:12;;;;;;;;;;;21.90;76.00;;;;;;4948181;28;95576;-38
2023/10/12 08:57:48;;;;;;;;;;;21.80;75.90;;;;;;4941709;28;96324;-38
2023/10/12 09:00:24;;;;;;;;;;;21.80;76.10;;;;;;4950746;28;94260;-38
2023/10/12 09:02:53;;;;;;;;;;;21.90;76.00;;;;;;4941851;28;99284;-45
2023/10/12 09:05:28;;;;;;;;;;;21.90;76.00;;;;;;4947624;28;97780;-42
2023/10/12 09:08:24;;;;;;;;;;;21.90;75.70;;;;;;4940117;28;96318;-40
2023/10/12 09:10:58;;;;;;;;;;;21.90;75.70;;;;;;4946708;28;96055;-41
2023/10/12 09:13:26;;;;;;;;;;;21.90;75.70;;;;;;4939991;28;94840;-43
2023/10/12 09:15:55;;;;;;;;;;;21.90;75.90;;;;;;4946067;28;95999;-41
2023/10/12 09:18:24;;;;;;;;;;;21.90;75.80;;;;;;4947654;28;99703;-42
2023/10/12 09:23:31;;;;;;;;;;;21.90;76.00;;;;;;4941966;28;94764;-42
2023/10/12 09:26:30;;;;;;;;;;;21.90;76.10;;;;;;4944661;28;94791;-42
2023/10/12 09:31:14;;;;;;;;;;;21.90;76.10;;;;;;4950939;28;94912;-46
2023/10/12 09:34:31;;;;;;;;;;;21.90;76.20;;;;;;4944039;28;97212;-45
2023/10/12 09:36:44;;;;;;;;;;;21.90;76.10;;;;;;4941513;28;94802;-43
2023/10/12 09:39:24;;;;;;;;;;;21.90;76.00;;;;;;4941192;28;96031;-39
2023/10/12 09:41:59;;;;;;;;;;;21.90;75.90;;;;;;4946407;28;94823;-39
2023/10/12 09:44:36;;;;;;;;;;;21.90;76.00;;;;;;4948763;28;94515;-39
2023/10/12 09:47:08;;;;;;;;;;;21.90;76.20;;;;;;4940983;28;94975;-39
2023/10/12 09:49:37;;;;;;;;;;;21.90;76.20;;;;;;4946580;28;101448;-40
2023/10/12 09:52:13;;;;;;;;;;;21.90;76.00;;;;;;4947713;28;96222;-39
2023/10/12 09:54:45;;;;;;;;;;;21.90;75.90;;;;;;4944830;28;95355;-40
2023/10/12 09:57:19;;;;;;;;;;;21.90;75.90;;;;;;4952304;28;96091;-40
2023/10/12 09:59:52;;;;;;;;;;;21.90;75.90;;;;;;4950172;28;96163;-41
2023/10/12 10:02:34;;;;;;;;;;;21.90;75.40;;;;;;4941484;28;95167;-40
2023/10/12 10:05:11;;;;;;;;;;;21.90;75.30;;;;;;4949764;28;100270;-40
2023/10/12 10:08:17;;;;;;;;;;;22.00;75.30;;;;;;4938696;28;95247;-39
2023/10/12 10:10:45;;;;;;;;;;;22.00;75.40;;;;;;4888383;28;98157;-39
2023/10/12 10:13:30;;;;;;;;;;;22.00;75.40;;;;;;4932616;28;96580;-40
2023/10/12 10:15:55;;;;;;;;;;;22.00;75.70;;;;;;4945142;28;98379;-40
2023/10/12 10:18:28;;;;;;;;;;;22.10;75.50;;;;;;4950100;28;93868;-40
2023/10/12 10:21:06;;;;;;;;;;;22.00;75.40;;;;;;4941538;28;94676;-40
2023/10/12 10:23:47;;;;;;;;;;;22.00;75.50;;;;;;4954218;28;96773;-40
2023/10/12 10:26:19;;;;;;;;;;;22.10;75.50;;;;;;4937814;28;96180;-40
2023/10/12 10:28:55;;;;;;;;;;;22.10;75.60;;;;;;4945604;28;94726;-40
2023/10/12 10:31:27;;;;;;;;;;;22.10;75.70;;;;;;4947808;28;94749;-40
2023/10/12 10:33:57;;;;;;;;;;;22.10;75.70;;;;;;4943765;28;94790;-40
2023/10/12 10:36:26;;;;;;;;;;;22.10;75.60;;;;;;4944757;28;94774;-40
2023/10/12 10:42:07;;;;;;;;;;;22.00;75.50;;;;;;4947658;28;95311;-40
2023/10/12 10:44:15;;;;;;;;;;;22.00;75.40;;;;;;4937060;28;93974;-40
2023/10/12 10:46:44;;;;;;;;;;;22.10;75.40;;;;;;4946252;28;95579;-40
2023/10/12 10:49:15;;;;;;;;;;;22.00;75.40;;;;;;4938649;28;97102;-40
2023/10/12 10:52:26;;;;;;;;;;;22.00;75.30;;;;;;4932288;28;97275;-40
2023/10/12 10:54:59;;;;;;;;;;;22.00;75.40;;;;;;4942436;28;95795;-40
2023/10/12 10:57:25;;;;;;;;;;;22.00;75.50;;;;;;4939095;28;95798;-40
2023/10/12 10:59:51;;;;;;;;;;;22.00;75.30;;;;;;4943488;28;95934;-40
2023/10/12 11:02:18;;;;;;;;;;;22.00;75.40;;;;;;4940671;28;95531;-40
2023/10/12 11:04:46;;;;;;;;;;;22.10;75.30;;;;;;4941505;28;95678;-40
2023/10/12 11:07:17;;;;;;;;;;;22.00;75.40;;;;;;4941100;28;94874;-40
2023/10/12 11:10:19;;;;;;;;;;;22.00;75.20;;;;;;4939927;28;98220;-40
2023/10/12 11:12:45;;;;;;;;;;;22.10;75.20;;;;;;4936560;28;97013;-40
2023/10/12 11:15:11;;;;;;;;;;;22.00;75.20;;;;;;4944878;28;95035;-40
2023/10/12 11:17:40;;;;;;;;;;;22.00;75.10;;;;;;4941410;28;99841;-40
2023/10/12 11:20:27;;;;;;;;;;;22.00;75.00;;;;;;4941193;28;95860;-40
2023/10/12 11:22:56;;;;;;;;;;;22.00;75.10;;;;;;4925036;28;96718;-40
2023/10/12 11:25:21;;;;;;;;;;;22.00;74.80;;;;;;4938672;28;99182;-40
2023/10/12 11:27:47;;;;;;;;;;;22.00;75.00;;;;;;4937557;28;95850;-41
2023/10/12 11:30:19;;;;;;;;;;;22.10;75.50;;;;;;4948936;28;94825;-39
2023/10/12 11:32:54;;;;;;;;;;;22.10;75.50;;;;;;4950712;28;96415;-40
2023/10/12 11:35:41;;;;;;;;;;;22.10;75.70;;;;;;4942397;28;95272;-39
2023/10/12 11:38:15;;;;;;;;;;;22.00;75.60;;;;;;4944351;28;96810;-43
2023/10/12 11:40:40;;;;;;;;;;;22.10;75.70;;;;;;4943972;28;95714;-42
2023/10/12 11:43:06;;;;;;;;;;;22.10;76.30;;;;;;4952902;28;95927;-41
2023/10/12 11:45:34;;;;;;;;;;;22.10;76.00;;;;;;4934043;28;97572;-41
2023/10/12 11:48:16;;;;;;;;;;;22.10;75.80;;;;;;4946346;28;94713;-43
2023/10/12 11:50:45;;;;;;;;;;;22.10;75.90;;;;;;4940718;28;94743;-41
2023/10/12 11:53:12;;;;;;;;;;;22.10;75.80;;;;;;4943299;28;100319;-43
2023/10/12 11:55:40;;;;;;;;;;;22.10;76.10;;;;;;4929300;28;97568;-44
2023/10/12 11:58:07;;;;;;;;;;;22.10;76.20;;;;;;4945684;28;95849;-42
2023/10/12 12:00:44;;;;;;;;;;;22.10;76.40;;;;;;4944859;28;94193;-41
2023/10/12 12:03:10;;;;;;;;;;;22.10;76.50;;;;;;4938298;28;95213;-42
2023/10/12 12:05:36;;;;;;;;;;;22.10;76.50;;;;;;4936265;28;95062;-42
2023/10/12 12:08:13;;;;;;;;;;;22.10;76.50;;;;;;4947446;28;99166;-42
2023/10/12 12:13:09;;;;;;;;;;;22.10;76.60;;;;;;4948257;28;94634;-44
2023/10/12 12:15:34;;;;;;;;;;;22.10;76.40;;;;;;4945576;28;94835;-41
2023/10/12 12:18:04;;;;;;;;;;;22.10;76.40;;;;;;4945082;28;99553;-41
2023/10/12 12:20:38;;;;;;;;;;;22.10;76.40;;;;;;4949035;28;94667;-41
2023/10/12 12:23:04;;;;;;;;;;;22.20;76.40;;;;;;4944544;28;94787;-40
2023/10/12 12:25:33;;;;;;;;;;;22.10;76.20;;;;;;4948497;28;94847;-38
2023/10/12 12:28:04;;;;;;;;;;;22.10;76.50;;;;;;4947911;28;95796;-38
2023/10/12 12:30:32;;;;;;;;;;;22.10;76.90;;;;;;4945373;28;95585;-39
2023/10/12 12:33:00;;;;;;;;;;;22.10;77.20;;;;;;4959284;28;95442;-38
2023/10/12 12:35:27;;;;;;;;;;;22.10;77.20;;;;;;4941824;28;95123;-38
2023/10/12 12:38:00;;;;;;;;;;;22.10;77.30;;;;;;4951776;28;94568;-38
2023/10/12 12:40:30;;;;;;;;;;;22.10;77.30;;;;;;4943590;28;94938;-37
2023/10/12 12:42:56;;;;;;;;;;;22.10;77.40;;;;;;4941230;28;99184;-39
2023/10/12 12:45:21;;;;;;;;;;;22.10;77.50;;;;;;4948866;28;96662;-37
2023/10/12 12:47:47;;;;;;;;;;;22.10;77.50;;;;;;4945368;28;94901;-39
2023/10/12 12:50:12;;;;;;;;;;;22.10;77.40;;;;;;4951658;28;94594;-37
2023/10/12 12:52:38;;;;;;;;;;;22.10;77.50;;;;;;4944411;28;95758;-40
2023/10/12 12:55:10;;;;;;;;;;;22.00;77.60;;;;;;4948223;28;94776;-38
2023/10/12 12:57:38;;;;;;;;;;;22.10;77.60;;;;;;4944940;28;96654;-37
2023/10/12 13:00:08;;;;;;;;;;;22.10;77.60;;;;;;4944493;28;95095;-38
2023/10/12 13:02:33;;;;;;;;;;;22.10;77.60;;;;;;4948980;28;95455;-40
2023/10/12 13:05:02;;;;;;;;;;;22.10;77.50;;;;;;4940354;28;97182;-39
2023/10/12 13:07:28;;;;;;;;;;;22.10;77.50;;;;;;4955186;28;96069;-39
2023/10/12 13:09:53;;;;;;;;;;;22.10;77.50;;;;;;4946727;28;97917;-40
2023/10/12 13:12:19;;;;;;;;;;;22.10;77.80;;;;;;4953903;28;94790;-39
2023/10/12 13:14:44;;;;;;;;;;;22.10;77.60;;;;;;4946684;28;94544;-39
2023/10/12 13:17:12;;;;;;;;;;;22.10;77.80;;;;;;4954210;28;95632;-39
2023/10/12 13:19:37;;;;;;;;;;;22.20;77.90;;;;;;4943911;28;98466;-40
2023/10/12 13:22:03;;;;;;;;;;;22.10;77.80;;;;;;4949024;28;96898;-39
2023/10/12 13:24:35;;;;;;;;;;;22.10;77.90;;;;;;4946056;28;95188;-39
2023/10/12 13:27:08;;;;;;;;;;;22.20;77.80;;;;;;4947043;28;96247;-41
2023/10/12 13:29:34;;;;;;;;;;;22.20;77.90;;;;;;4945819;28;94735;-38
2023/10/12 13:32:00;;;;;;;;;;;22.20;77.80;;;;;;4951637;28;99497;-39
2023/10/12 13:34:27;;;;;;;;;;;22.20;77.70;;;;;;4952121;28;96679;-39
2023/10/12 13:36:53;;;;;;;;;;;22.30;77.70;;;;;;4948350;28;93955;-47
2023/10/12 13:39:18;;;;;;;;;;;22.20;78.00;;;;;;4950118;28;94535;-41
2023/10/12 13:41:44;;;;;;;;;;;22.20;77.90;;;;;;4945138;28;94797;-42
2023/10/12 13:44:09;;;;;;;;;;;22.30;77.80;;;;;;4955645;28;95229;-41
2023/10/12 13:46:35;;;;;;;;;;;22.30;77.80;;;;;;4940752;28;96378;-40
2023/10/12 13:49:02;;;;;;;;;;;22.30;77.80;;;;;;4952227;28;94717;-41
2023/10/12 13:51:31;;;;;;;;;;;22.30;77.80;;;;;;4947148;28;95066;-39
2023/10/12 13:53:57;;;;;;;;;;;22.30;77.80;;;;;;4951601;28;94793;-39
2023/10/12 13:56:26;;;;;;;;;;;22.30;77.90;;;;;;4950381;28;97211;-40
2023/10/12 13:59:00;;;;;;;;;;;22.30;77.90;;;;;;4951224;28;95545;-40
2023/10/12 14:01:26;;;;;;;;;;;22.30;78.00;;;;;;4946415;28;94617;-41
2023/10/12 14:03:55;;;;;;;;;;;22.30;78.00;;;;;;4951036;28;94527;-41
2023/10/12 14:06:23;;;;;;;;;;;22.30;77.90;;;;;;4950848;28;95429;-41
2023/10/12 14:08:51;;;;;;;;;;;22.30;78.10;;;;;;4957280;28;98901;-41
2023/10/12 14:11:17;;;;;;;;;;;22.30;78.20;;;;;;4948529;28;96920;-41
2023/10/12 14:13:43;;;;;;;;;;;22.30;78.40;;;;;;4937129;28;96457;-42
2023/10/12 14:16:09;;;;;;;;;;;22.30;78.40;;;;;;4943215;28;95393;-41
2023/10/12 14:18:35;;;;;;;;;;;22.30;78.30;;;;;;4942196;28;97918;-42
2023/10/12 14:21:00;;;;;;;;;;;22.30;78.50;;;;;;4942324;28;95112;-40
2023/10/12 14:23:30;;;;;;;;;;;22.30;78.10;;;;;;4942697;28;94864;-43
2023/10/12 14:25:57;;;;;;;;;;;22.30;78.00;;;;;;4944819;28;95300;-41
2023/10/12 14:28:23;;;;;;;;;;;22.30;78.50;;;;;;4945826;28;94353;-41
2023/10/12 14:30:52;;;;;;;;;;;22.30;78.40;;;;;;4942066;28;95863;-41
2023/10/12 14:33:21;;;;;;;;;;;22.30;78.30;;;;;;4944634;28;95144;-39
2023/10/12 14:35:47;;;;;;;;;;;22.30;78.20;;;;;;4947468;28;96836;-41
2023/10/12 14:38:17;;;;;;;;;;;22.30;78.10;;;;;;4941704;28;95506;-40
2023/10/12 14:40:45;;;;;;;;;;;22.30;78.00;;;;;;4939357;28;96752;-39
2023/10/12 14:43:12;;;;;;;;;;;22.40;77.80;;;;;;4938012;28;94762;-39
2023/10/12 14:45:48;;;;;;;;;;;22.30;77.60;;;;;;4944746;28;94815;-39
2023/10/12 14:48:16;;;;;;;;;;;22.40;77.70;;;;;;4933517;28;97139;-40
2023/10/12 14:50:49;;;;;;;;;;;22.40;77.80;;;;;;4935408;28;97465;-39
2023/10/12 14:53:15;;;;;;;;;;;22.30;77.70;;;;;;4951449;28;94143;-40
2023/10/12 14:55:51;;;;;;;;;;;22.30;77.90;;;;;;4941756;28;94759;-40
2023/10/12 14:58:17;;;;;;;;;;;22.30;77.90;;;;;;4948176;28;95132;-39
2023/10/12 15:00:46;;;;;;;;;;;22.40;77.90;;;;;;4936440;28;96002;-40
2023/10/12 15:03:15;;;;;;;;;;;22.40;77.40;;;;;;4946191;28;95199;-40
2023/10/12 15:05:41;;;;;;;;;;;22.30;77.00;;;;;;4939084;28;96995;-41
2023/10/12 15:08:08;;;;;;;;;;;22.30;76.80;;;;;;4939932;28;95969;-40
2023/10/12 15:10:40;;;;;;;;;;;22.30;77.00;;;;;;4935218;28;96064;-40
2023/10/12 15:13:11;;;;;;;;;;;22.40;77.00;;;;;;4940448;28;95605;-40
2023/10/12 15:15:37;;;;;;;;;;;22.40;76.80;;;;;;4946825;28;95043;-39
2023/10/12 15:18:03;;;;;;;;;;;22.40;76.80;;;;;;4944442;28;98361;-40
2023/10/12 15:20:31;;;;;;;;;;;22.30;76.40;;;;;;4940780;28;96324;-39
2023/10/12 15:22:56;;;;;;;;;;;22.30;76.30;;;;;;4941772;28;95288;-40
2023/10/12 15:25:22;;;;;;;;;;;22.30;76.60;;;;;;4950756;28;95657;-40
2023/10/12 15:27:50;;;;;;;;;;;22.30;76.70;;;;;;4947015;28;94605;-40
2023/10/12 15:30:16;;;;;;;;;;;22.30;77.10;;;;;;4944870;28;96238;-40
2023/10/12 15:32:42;;;;;;;;;;;22.20;78.70;;;;;;4951357;28;94633;-40
2023/10/12 15:35:11;;;;;;;;;;;22.10;79.30;;;;;;4947705;28;94725;-40
2023/10/12 15:37:46;;;;;;;;;;;22.10;79.70;;;;;;4949734;28;97329;-40
2023/10/12 15:40:17;;;;;;;;;;;22.10;79.90;;;;;;4945927;28;99069;-40
2023/10/12 15:42:50;;;;;;;;;;;22.10;80.00;;;;;;4943747;28;99118;-39
2023/10/12 15:45:17;;;;;;;;;;;22.10;80.20;;;;;;4953163;28;94740;-40
2023/10/12 15:47:46;;;;;;;;;;;22.00;80.20;;;;;;4944962;28;94815;-40
2023/10/12 15:50:11;;;;;;;;;;;22.10;80.30;;;;;;4943705;28;96467;-40
2023/10/12 15:52:37;;;;;;;;;;;22.10;80.50;;;;;;4945426;28;94930;-40
2023/10/12 15:55:03;;;;;;;;;;;22.10;80.60;;;;;;4948896;28;94729;-40
2023/10/12 15:57:31;;;;;;;;;;;22.10;80.50;;;;;;4951103;28;96136;-39
2023/10/12 15:59:58;;;;;;;;;;;22.00;80.60;;;;;;4944588;28;95781;-40
2023/10/12 16:02:24;;;;;;;;;;;22.00;80.70;;;;;;4938840;28;95983;-39
2023/10/12 16:04:53;;;;;;;;;;;22.00;80.70;;;;;;4948770;28;96183;-40
2023/10/12 16:07:18;;;;;;;;;;;22.00;80.70;;;;;;4945732;28;95103;-42
2023/10/12 16:09:46;;;;;;;;;;;22.00;81.00;;;;;;4934187;28;98020;-39
2023/10/12 16:12:17;;;;;;;;;;;22.00;81.00;;;;;;4943060;28;94734;-40
2023/10/12 16:14:44;;;;;;;;;;;22.10;80.00;;;;;;4935325;28;98231;-40
2023/10/12 16:17:10;;;;;;;;;;;22.10;79.60;;;;;;4941441;28;96070;-40
2023/10/12 16:19:36;;;;;;;;;;;22.10;79.40;;;;;;4945402;28;96995;-39
2023/10/12 16:22:02;;;;;;;;;;;22.10;79.00;;;;;;4943510;28;97621;-40
2023/10/12 16:24:28;;;;;;;;;;;22.10;79.30;;;;;;4947738;28;94818;-43